Nearby METAR Reports

 

KCRE - North Myrtle Bea, South Carolina, USA
Distance from station: SW 11mi, 18km
Updated: 06/21/2018 3:53am
Mostly cloudy
Mostly cloudy
 Wind from SW
Wind: SW 8 mph , 13 km/h
Temperature: 79°F , 26°C
Dew Point: 77°F , 25°C
Humidity: 94%
Barometer: 29.80 inHg , 1009.1 hPa
Clouds: Mostly cloudy
Visibility: 8 miles , 13 km
Cloud details: Mostly cloudy 9500 ft
2018/06/21 07:53 KCRE 210753Z AUTO 22007KT 8SM BKN095 26/25 A2980 RMK AO1 SLP093 T02610250
KCPC - Whiteville, North Carolina, USA
Distance from station: NNW 26mi, 42km
Updated: 06/21/2018 3:35am
Mostly cloudy
Mostly cloudy
 Wind from calm
Wind: Calm
Temperature: 75°F , 24°C
Dew Point: 73°F , 23°C
Humidity: 94%
Barometer: 29.80 inHg , 1009.1 hPa
Clouds: Mostly cloudy
Visibility: 10 miles , 16 km
Cloud details: Mostly cloudy 10000 ft
2018/06/21 07:35 KCPC 210735Z AUTO 00000KT 10SM BKN100 24/23 A2980 RMK AO2 T02380230
 
KMYR - Myrtle Beach, South Carolina, USA
Distance from station: SW 27mi, 43km
Updated: 06/21/2018 3:56am
Clear
Clear
 Wind from SSW
Wind: SSW 5 mph , 7 km/h
Temperature: 81°F , 27°C
Heat Index: 87°F , 31°C
Dew Point: 75°F , 24°C
Humidity: 84%
Barometer: 29.82 inHg , 1009.8 hPa
Clouds: Clear
Visibility: 10 miles , 16 km
2018/06/21 07:56 KMYR 210756Z AUTO 21004KT 10SM CLR 27/24 A2982 RMK AO2 SLP099 T02670244
KSUT - Southport, North Carolina, USA
Distance from station: E 28mi, 45km
Updated: 06/21/2018 3:40am
Clear
Clear
 Wind from SW
Wind: SW 10 mph , 17 km/h
Temperature: 81°F , 27°C
Heat Index: 89°F , 32°C
Dew Point: 79°F , 26°C
Humidity: 94%
Barometer: 29.82 inHg , 1009.8 hPa
Clouds: Clear
Visibility: 7 miles , 11 km
2018/06/21 07:40 KSUT 210740Z AUTO 23009KT 7SM CLR 27/26 A2982 RMK AO2 T02660261
 
KHYW - Conway-Horry Cty, South Carolina, USA
Distance from station: WSW 32mi, 52km
Updated: 06/21/2018 3:35am
Clear
Clear
 Wind from calm
Wind: Calm
Temperature: 73°F , 23°C
Dew Point: 73°F , 23°C
Humidity: 100%
Barometer: 29.81 inHg , 1009.5 hPa
Clouds: Clear
Visibility: 7 miles , 11 km
2018/06/21 07:35 KHYW 210735Z AUTO 00000KT 7SM CLR 23/23 A2981 RMK AO2
KILM - Wilmington, North Carolina, USA
Distance from station: ENE 45mi, 72km
Updated: 06/21/2018 3:53am
Clear
Clear
 Wind from SSW
Wind: SSW 6 mph , 9 km/h
Temperature: 77°F , 25°C
Dew Point: 73°F , 23°C
Humidity: 89%
Barometer: 29.80 inHg , 1009.1 hPa
Clouds: Clear
Visibility: 10 miles , 16 km
2018/06/21 07:53 KILM 210753Z 21005KT 10SM CLR 25/23 A2980 RMK AO2 SLP091 T02500233
 
KEYF - Elizabethtown, North Carolina, USA
Distance from station: N 47mi, 75km
Updated: 06/21/2018 3:35am
Clear
Clear
 Wind from calm
Wind: Calm
Temperature: 75°F , 24°C
Dew Point: 73°F , 23°C
Humidity: 94%
Barometer: 29.81 inHg , 1009.5 hPa
Clouds: Clear
Visibility: 10 miles , 16 km
2018/06/21 07:35 KEYF 210735Z AUTO 00000KT 10SM CLR 24/23 A2981 RMK AO2 T02410229
KMAO - Marion, South Carolina, USA
Distance from station: WNW 47mi, 76km
Updated: 06/21/2018 3:55am
Clear
Clear
 Wind from WSW
Wind: WSW 3 mph , 6 km/h
Temperature: 73°F , 23°C
Dew Point: 72°F , 22°C
Humidity: 94%
Barometer: 29.81 inHg , 1009.5 hPa
Clouds: Clear
Visibility: 7 miles , 11 km
2018/06/21 07:55 KMAO 210755Z AUTO 24003KT 7SM CLR 23/22 A2981 RMK AO2
 
KLBT - Lumberton, North Carolina, USA
Distance from station: NNW 55mi, 88km
Updated: 06/21/2018 3:54am
Clear
Clear
 Wind from SW
Wind: SW 3 mph , 6 km/h
Barometer: 29.80 inHg , 1009.1 hPa
Clouds: Clear
2018/06/21 07:54 KLBT 210754Z AUTO 23003KT CLR A2980 RMK AO2 SLPNO $
KGGE - Georgetown, South Carolina, USA
Distance from station: SW 60mi, 97km
Updated: 06/21/2018 3:55am
Partly cloudy
Partly cloudy
 Wind from WSW
Wind: WSW 3 mph , 6 km/h
Temperature: 77°F , 25°C
Dew Point: 75°F , 24°C
Humidity: 94%
Barometer: 29.84 inHg , 1010.5 hPa
Clouds: Partly cloudy
Visibility: 7 miles , 11 km
Cloud details: Partly cloudy 700 ft
2018/06/21 07:55 KGGE 210755Z AUTO 24003KT 7SM SCT007 25/24 A2984 RMK AO2
 
KFLO - Florence, South Carolina, USA
Distance from station: WNW 69mi, 111km
Updated: 06/21/2018 3:53am
Mist, Clear
Mist, Clear
 Wind from S
Wind: S 3 mph , 6 km/h
Temperature: 75°F , 24°C
Dew Point: 75°F , 24°C
Humidity: 100%
Barometer: 29.81 inHg , 1009.5 hPa
Summary: Mist
Clouds: Clear
Visibility: 6 miles , 10 km
2018/06/21 07:53 KFLO 210753Z AUTO 18003KT 6SM BR CLR 24/24 A2981 RMK AO2 SLP092 T02440239
KCTZ - Clinton, North Carolina, USA
Distance from station: N 74mi, 119km
Updated: 06/21/2018 3:35am
Clear
Clear
 Wind from calm
Wind: Calm
Temperature: 75°F , 24°C
Dew Point: 75°F , 24°C
Humidity: 100%
Barometer: 29.82 inHg , 1009.8 hPa
Clouds: Clear
Visibility: 10 miles , 16 km
2018/06/21 07:35 KCTZ 210735Z AUTO 00000KT 10SM CLR 24/24 A2982 RMK AO2 T02380237
 
KMEB - Maxton, North Carolina, USA
Distance from station: NW 75mi, 120km
Updated: 06/21/2018 3:52am
Mist, Clear
Mist, Clear
 Wind from calm
Wind: Calm
Temperature: 73°F , 23°C
Dew Point: 73°F , 23°C
Humidity: 100%
Barometer: 29.82 inHg , 1009.8 hPa
Summary: Mist
Clouds: Clear
Visibility: 5 miles , 8 km
2018/06/21 07:52 KMEB 210752Z AUTO 00000KT 5SM BR CLR 23/23 A2982 RMK AO2 SLP094 T02330228
KCKI - Kingstree, South Carolina, USA
Distance from station: W 75mi, 121km
Updated: 06/21/2018 3:55am
Clear
Clear
 Wind from calm
Wind: Calm
Temperature: 73°F , 23°C
Dew Point: 72°F , 22°C
Humidity: 94%
Barometer: 29.81 inHg , 1009.5 hPa
Clouds: Clear
Visibility: 10 miles , 16 km
2018/06/21 07:55 KCKI 210755Z AUTO 00000KT 10SM CLR 23/22 A2981 RMK AO2
 
KFAY - Fayetteville, North Carolina, USA
Distance from station: NNW 75mi, 121km
Updated: 06/21/2018 3:53am
Clear
Clear
 Wind from S
Wind: S 5 mph , 7 km/h
Temperature: 75°F , 24°C
Dew Point: 72°F , 22°C
Humidity: 89%
Barometer: 29.80 inHg , 1009.1 hPa
Clouds: Clear
Visibility: 10 miles , 16 km
2018/06/21 07:53 KFAY 210753Z 19004KT 10SM CLR 24/22 A2980 RMK AO2 SLP084 T02390222
KBBP - Marlboro Cnty, South Carolina, USA
Distance from station: NW 82mi, 132km
Updated: 06/21/2018 3:55am
Mist, Clear
Mist, Clear
 Wind from calm
Wind: Calm
Temperature: 73°F , 23°C
Dew Point: 73°F , 23°C
Humidity: 100%
Barometer: 29.81 inHg , 1009.5 hPa
Summary: Mist
Clouds: Clear
Visibility: 5 miles , 8 km
2018/06/21 07:55 KBBP 210755Z AUTO 00000KT 5SM BR CLR 23/23 A2981 RMK AO2
 
KDPL - Kenansville/Dupl, North Carolina, USA
Distance from station: NNE 82mi, 132km
Updated: 06/21/2018 3:35am
Mist, Overcast
Mist, Overcast
 Wind from calm
Wind: Calm
Temperature: 73°F , 23°C
Dew Point: 73°F , 23°C
Humidity: 100%
Barometer: 29.81 inHg , 1009.5 hPa
Summary: Mist
Clouds: Overcast
Visibility: 1 1/2 miles , 2.4 km
Cloud details: Overcast 700 ft
2018/06/21 07:35 KDPL 210735Z AUTO 00000KT 1 1/2SM BR VV007 23/23 A2981 RMK AO2
KOAJ - Jacksonville, North Carolina, USA
Distance from station: NE 82mi, 132km
Updated: 06/21/2018 3:56am
Few Clouds
Few Clouds
 Wind from calm
Wind: Calm
Temperature: 73°F , 23°C
Dew Point: 72°F , 22°C
Humidity: 94%
Barometer: 29.81 inHg , 1009.5 hPa
Clouds: Few Clouds
Visibility: 10 miles , 16 km
Cloud details: Few Clouds 12000 ft
2018/06/21 07:56 KOAJ 210756Z AUTO 00000KT 10SM FEW120 23/22 A2981 RMK AO2 SLP097 T02280222
 
KUDG - Darlington Cnty, South Carolina, USA
Distance from station: WNW 83mi, 134km
Updated: 06/21/2018 3:56am
Mist
Mist
 Wind from calm
Wind: Calm
Temperature: 75°F , 24°C
Dew Point: 75°F , 24°C
Humidity: 100%
Barometer: 29.82 inHg , 1009.8 hPa
Summary: Mist
Visibility: 5 miles , 8 km
2018/06/21 07:56 KUDG 210756Z AUTO 00000KT 5SM BR 24/24 A2982 RMK AO2 SLP100 T02390239 $
KNCA - New River Mcas, North Carolina, USA
Distance from station: NE 84mi, 135km
Updated: 06/21/2018 3:56am
Clear
Clear
 Wind from S
Wind: S 3 mph , 6 km/h
Temperature: 75°F , 24°C
Dew Point: 73°F , 23°C
Humidity: 94%
Barometer: 29.80 inHg , 1009.1 hPa
Clouds: Clear
Visibility: 10 miles , 16 km
2018/06/21 07:56 KNCA 210756Z AUTO 19003KT 10SM CLR 24/23 A2980 RMK AO2 SLP092 T02390233